Time;durP1;ratioP1;P1;durP2;ratioP2;P2;SDS_P1;SDS_P2;PMS_P1;PMS_P2;Temp;Humidity;BMP_temperature;BMP_pressure;BME280_temperature;BME280_humidity;BME280_pressure;Samples;Min_cycle;Max_cycle;Signal;HPM_P1;HPM_P2
2021/08/03 00:02:47;;;;;;;3.47;2.85;;;12.60;99.90;;;;;;6318192;28;20024;-80
2021/08/03 00:05:49;;;;;;;4.13;2.60;;;12.60;99.90;;;;;;6296285;28;20046;-80
2021/08/03 00:08:56;;;;;;;;;;;12.60;99.90;;;;;;6301331;28;20028;-80
2021/08/03 00:11:56;;;;;;;4.47;2.92;;;12.60;99.90;;;;;;6317509;28;19963;-80
2021/08/03 00:14:57;;;;;;;2.75;2.55;;;12.50;99.90;;;;;;6301182;28;20024;-81
2021/08/03 00:17:57;;;;;;;3.33;2.63;;;12.40;99.90;;;;;;6317692;28;20036;-80
2021/08/03 00:20:58;;;;;;;2.85;2.55;;;12.30;99.90;;;;;;6319125;28;20024;-81
2021/08/03 00:23:59;;;;;;;3.35;2.70;;;;;;;;;;6283793;28;20036;-80
2021/08/03 00:27:00;;;;;;;5.13;2.83;;;;;;;;;;6317204;28;20028;-81
2021/08/03 00:30:01;;;;;;;6.20;3.58;;;12.20;99.90;;;;;;6317552;28;20472;-80
2021/08/03 00:33:02;;;;;;;8.80;2.93;;;;;;;;;;6300433;28;20036;-80
2021/08/03 00:36:03;;;;;;;6.82;2.92;;;;;;;;;;6316949;28;20141;-80
2021/08/03 00:39:04;;;;;;;4.47;3.08;;;12.20;99.90;;;;;;6318636;28;20020;-80
2021/08/03 00:42:05;;;;;;;4.57;2.80;;;12.10;99.90;;;;;;6283755;28;20058;-80
2021/08/03 00:45:06;;;;;;;3.50;2.67;;;12.10;99.90;;;;;;6300177;28;20020;-80
2021/08/03 00:48:07;;;;;;;6.97;3.10;;;12.20;99.90;;;;;;6317117;28;20036;-79
2021/08/03 00:51:08;;;;;;;5.75;3.00;;;12.50;99.90;;;;;;6300074;28;20758;-80
2021/08/03 00:54:08;;;;;;;5.38;2.95;;;11.80;99.90;;;;;;6316924;28;20120;-80
2021/08/03 00:57:10;;;;;;;2.88;2.58;;;12.00;99.90;;;;;;6316620;28;20515;-80
2021/08/03 01:00:11;;;;;;;5.72;3.35;;;12.10;99.90;;;;;;6299960;28;20023;-80
2021/08/03 01:03:11;;;;;;;5.13;3.20;;;12.10;99.90;;;;;;6300356;28;20089;-80
2021/08/03 01:06:27;;;;;;;5.57;2.90;;;12.10;99.90;;;;;;6282867;28;20118;-80
2021/08/03 01:10:14;;;;;;;3.95;2.80;;;12.30;99.90;;;;;;6300946;28;20028;-80
2021/08/03 01:13:43;;;;;;;3.47;3.03;;;12.20;99.90;;;;;;6247157;28;20475;-80
2021/08/03 01:16:55;;;;;;;4.13;2.70;;;12.10;99.90;;;;;;6283711;28;20389;-80
2021/08/03 01:20:14;;;;;;;;;;;12.00;99.90;;;;;;6317031;28;20466;-80
2021/08/03 01:23:54;;;;;;;3.15;2.50;;;11.90;99.90;;;;;;6317746;28;19908;-80
2021/08/03 01:27:13;;;;;;;3.00;2.58;;;11.90;99.90;;;;;;6316161;28;20028;-80
2021/08/03 01:30:13;;;;;;;5.25;3.42;;;11.90;99.90;;;;;;6283893;28;20068;-79
2021/08/03 01:33:15;;;;;;;4.13;2.70;;;12.10;99.90;;;;;;6291573;28;20024;-80
2021/08/03 01:36:16;;;;;;;5.00;2.63;;;11.90;99.90;;;;;;6299985;28;20039;-79
2021/08/03 01:39:18;;;;;;;2.70;2.45;;;11.90;99.90;;;;;;6316228;28;20029;-79
2021/08/03 01:42:19;;;;;;;;;;;11.90;99.90;;;;;;6300104;28;20028;-80
2021/08/03 01:45:19;;;;;;;4.20;2.53;;;11.90;99.90;;;;;;6316477;28;19967;-80
2021/08/03 01:48:20;;;;;;;4.88;2.80;;;11.90;99.90;;;;;;6299739;28;20028;-80
2021/08/03 01:51:20;;;;;;;5.32;2.60;;;11.70;99.90;;;;;;6284584;28;20056;-80
2021/08/03 01:54:21;;;;;;;3.83;3.00;;;11.80;99.90;;;;;;6315510;28;20482;-80
2021/08/03 01:57:22;;;;;;;3.60;2.92;;;11.80;99.90;;;;;;6299336;28;20470;-79
2021/08/03 02:00:22;;;;;;;4.53;2.80;;;11.60;99.90;;;;;;6316099;28;20400;-80
2021/08/03 02:03:24;;;;;;;3.10;2.65;;;11.60;99.90;;;;;;6299495;28;20059;-80
2021/08/03 02:06:25;;;;;;;4.60;2.80;;;;;;;;;;6282418;28;20664;-80
2021/08/03 02:09:26;;;;;;;4.57;2.63;;;;;;;;;;6319380;28;20053;-80
2021/08/03 02:12:27;;;;;;;3.08;2.75;;;11.60;99.90;;;;;;6321862;28;20154;-80
2021/08/03 02:15:28;;;;;;;3.38;2.70;;;11.60;99.90;;;;;;6320441;28;20377;-79
2021/08/03 02:18:29;;;;;;;2.70;2.40;;;11.70;99.90;;;;;;6304476;28;20012;-79
2021/08/03 02:21:30;;;;;;;3.08;2.60;;;;;;;;;;6303376;28;20062;-80
2021/08/03 02:24:31;;;;;;;5.00;2.75;;;11.60;99.90;;;;;;6321756;28;20069;-80
2021/08/03 02:27:31;;;;;;;3.63;2.33;;;11.50;99.90;;;;;;6320320;28;20347;-80
2021/08/03 02:30:32;;;;;;;4.30;2.88;;;11.60;99.90;;;;;;6320072;28;20028;-80
2021/08/03 02:33:36;;;;;;;4.18;2.70;;;11.70;99.90;;;;;;6320355;28;20020;-79
2021/08/03 02:36:40;;;;;;;4.53;2.60;;;11.70;99.90;;;;;;6319921;28;20442;-80
2021/08/03 02:39:41;;;;;;;4.45;2.78;;;11.70;99.90;;;;;;6286834;28;20036;-79
2021/08/03 02:42:41;;;;;;;5.88;2.60;;;11.70;99.90;;;;;;6303281;28;20034;-79
2021/08/03 02:45:42;;;;;;;3.88;2.97;;;11.80;99.90;;;;;;6286194;28;20032;-80
2021/08/03 02:48:49;;;;;;;5.20;2.20;;;11.80;99.90;;;;;;6320109;28;20028;-79
2021/08/03 02:51:49;;;;;;;3.92;2.72;;;11.80;99.90;;;;;;6319638;28;20028;-80
2021/08/03 02:54:58;;;;;;;2.88;2.58;;;11.90;99.90;;;;;;6302647;28;20501;-81
2021/08/03 02:58:03;;;;;;;7.38;4.35;;;11.80;99.90;;;;;;6286001;28;20023;-80
2021/08/03 03:01:04;;;;;;;6.45;2.85;;;12.00;99.90;;;;;;6286730;28;20428;-79
2021/08/03 03:04:36;;;;;;;2.97;2.65;;;11.70;99.90;;;;;;6319547;28;20032;-79
2021/08/03 03:07:41;;;;;;;3.63;2.65;;;11.70;99.90;;;;;;6304980;28;20469;-79
2021/08/03 03:10:52;;;;;;;5.50;2.50;;;11.70;99.90;;;;;;6302806;28;20036;-80
2021/08/03 03:13:56;;;;;;;5.15;2.78;;;11.60;99.90;;;;;;6302480;28;20039;-80
2021/08/03 03:16:57;;;;;;;4.30;2.88;;;11.80;99.90;;;;;;6285549;28;20032;-80
2021/08/03 03:19:57;;;;;;;3.00;2.70;;;11.90;99.90;;;;;;6319304;28;20077;-79
2021/08/03 03:22:58;;;;;;;4.88;3.45;;;11.90;99.90;;;;;;6302273;28;20473;-79
2021/08/03 03:25:58;;;;;;;5.80;2.83;;;11.70;99.90;;;;;;6285699;28;20028;-79
2021/08/03 03:28:59;;;;;;;5.97;3.13;;;;;;;;;;6302020;28;20040;-79
2021/08/03 03:32:00;;;;;;;4.25;3.10;;;11.70;99.90;;;;;;6318986;28;20059;-79
2021/08/03 03:35:01;;;;;;;4.40;3.00;;;11.70;99.90;;;;;;6318813;28;20032;-79
2021/08/03 03:38:01;;;;;;;5.43;3.03;;;11.70;99.90;;;;;;6318370;28;20032;-79
2021/08/03 03:41:02;;;;;;;4.68;3.00;;;11.70;99.90;;;;;;6301955;28;20473;-80
2021/08/03 03:44:05;;;;;;;5.43;2.90;;;11.70;99.90;;;;;;6318626;28;20155;-80
2021/08/03 03:47:17;;;;;;;3.40;2.72;;;11.80;99.90;;;;;;6318572;28;20027;-80
2021/08/03 03:50:23;;;;;;;5.18;3.25;;;11.80;99.90;;;;;;6301250;28;20028;-80
2021/08/03 03:53:24;;;;;;;4.82;3.15;;;11.70;99.90;;;;;;6301556;28;20059;-80
2021/08/03 03:56:40;;;;;;;6.03;3.30;;;11.80;99.90;;;;;;6301010;28;20040;-79
2021/08/03 03:59:41;;;;;;;3.58;2.70;;;11.10;99.90;;;;;;6286674;28;20117;-80
2021/08/03 04:02:42;;;;;;;5.70;3.10;;;11.70;99.90;;;;;;6301314;28;20034;-80
2021/08/03 04:05:43;;;;;;;3.08;2.78;;;11.90;99.90;;;;;;6284866;28;20020;-80
2021/08/03 04:08:43;;;;;;;3.38;2.65;;;11.90;99.90;;;;;;6317828;28;20024;-79
2021/08/03 04:11:45;;;;;;;4.85;2.95;;;12.00;99.90;;;;;;6318968;28;20036;-80
2021/08/03 04:14:46;;;;;;;3.20;2.73;;;;;;;;;;6284234;28;20032;-79
2021/08/03 04:17:47;;;;;;;4.90;3.22;;;12.00;99.90;;;;;;6317644;28;20051;-80
2021/08/03 04:20:47;;;;;;;11.18;4.25;;;12.00;99.90;;;;;;6318011;28;20365;-80
2021/08/03 04:23:48;;;;;;;4.00;2.92;;;;;;;;;;6317450;28;20503;-80
2021/08/03 04:26:49;;;;;;;3.08;2.75;;;12.10;99.90;;;;;;6317739;28;20024;-79
2021/08/03 04:29:49;;;;;;;4.55;2.95;;;12.10;99.90;;;;;;6317561;28;20075;-80
2021/08/03 04:32:50;;;;;;;3.60;3.15;;;12.20;99.90;;;;;;6283282;28;20557;-80
2021/08/03 04:35:51;;;;;;;5.13;2.92;;;;;;;;;;6317608;28;20136;-80
2021/08/03 04:38:51;;;;;;;4.25;3.30;;;12.10;99.90;;;;;;6317351;28;20454;-80
2021/08/03 04:41:52;;;;;;;5.10;2.95;;;12.20;99.90;;;;;;6317236;28;20024;-80
2021/08/03 04:44:53;;;;;;;5.50;3.05;;;12.00;99.90;;;;;;6300093;28;20024;-80
2021/08/03 04:47:53;;;;;;;3.40;2.97;;;12.20;99.90;;;;;;6317755;28;20112;-81
2021/08/03 04:50:54;;;;;;;5.60;3.20;;;12.30;99.90;;;;;;6300274;28;20060;-79
2021/08/03 04:53:55;;;;;;;6.88;3.25;;;12.60;99.90;;;;;;6283597;28;20083;-79
2021/08/03 04:56:55;;;;;;;3.60;3.28;;;12.50;99.90;;;;;;6300586;28;20032;-79
2021/08/03 04:59:56;;;;;;;3.40;3.00;;;12.50;99.90;;;;;;6299889;28;20024;-80
2021/08/03 05:02:57;;;;;;;4.10;3.30;;;12.50;99.90;;;;;;6299966;28;20012;-79
2021/08/03 05:05:57;;;;;;;5.25;3.20;;;12.60;99.90;;;;;;6316850;28;20032;-82
2021/08/03 05:08:58;;;;;;;4.95;3.03;;;12.70;99.90;;;;;;6314563;28;20024;-83
2021/08/03 05:11:58;;;;;;;3.45;3.15;;;12.60;99.90;;;;;;6282431;28;20085;-83
2021/08/03 05:15:02;;;;;;;3.55;2.90;;;12.70;99.90;;;;;;6285553;28;20105;-81
2021/08/03 05:18:03;;;;;;;4.25;3.08;;;12.80;99.90;;;;;;6300334;28;20032;-84
2021/08/03 05:21:03;;;;;;;4.38;3.10;;;12.80;99.90;;;;;;6299453;28;20472;-84
2021/08/03 05:24:04;;;;;;;4.93;3.22;;;12.90;99.90;;;;;;6299899;28;20028;-82
2021/08/03 05:27:05;;;;;;;5.28;3.38;;;13.00;99.90;;;;;;6282934;28;20439;-82
2021/08/03 05:30:06;;;;;;;4.55;2.90;;;13.10;99.90;;;;;;6282396;28;20097;-81
2021/08/03 05:33:07;;;;;;;5.80;2.97;;;12.80;99.90;;;;;;6299432;28;20117;-80
2021/08/03 05:36:08;;;;;;;5.05;2.75;;;13.20;99.90;;;;;;6299164;28;20039;-80
2021/08/03 05:39:09;;;;;;;4.90;2.90;;;13.30;99.90;;;;;;6316048;28;20454;-80
2021/08/03 05:42:10;;;;;;;11.18;3.42;;;13.60;99.90;;;;;;6298848;28;20077;-85
2021/08/03 05:45:10;;;;;;;4.85;3.45;;;13.40;99.90;;;;;;6303641;28;20504;-84
2021/08/03 05:48:11;;;;;;;3.45;2.63;;;13.90;99.90;;;;;;6303872;28;20027;-82
2021/08/03 05:51:12;;;;;;;3.60;2.90;;;16.30;99.90;;;;;;6302984;28;20035;-83
2021/08/03 05:54:13;;;;;;;4.45;2.70;;;;;;;;;;6320917;28;20534;-87
2021/08/03 05:57:13;;;;;;;3.28;2.75;;;14.30;99.90;;;;;;6295657;28;20016;-83
2021/08/03 06:00:15;;;;;;;4.28;2.83;;;;;;;;;;6304253;28;20030;-86
2021/08/03 06:03:16;;;;;;;8.20;2.85;;;;;;;;;;6299784;28;20091;-83
2021/08/03 06:06:17;;;;;;;7.28;3.08;;;;;;;;;;6303902;28;20347;-84
2021/08/03 06:09:18;;;;;;;4.93;3.20;;;;;;;;;;6320652;28;20024;-87
2021/08/03 06:12:20;;;;;;;4.28;3.13;;;;;;;;;;6303747;28;20068;-84
2021/08/03 06:15:24;;;;;;;6.40;3.05;;;;;;;;;;6304853;28;20583;-88
2021/08/03 06:19:06;;;;;;;4.65;3.05;;;14.10;99.90;;;;;;6294103;28;20039;-88
2021/08/03 06:22:08;;;;;;;3.00;2.70;;;14.30;99.90;;;;;;6298092;28;20042;-90
2021/08/03 06:25:13;;;;;;;4.95;2.88;;;14.70;99.90;;;;;;6287588;28;20051;-89
2021/08/03 06:28:15;;;;;;;4.65;2.97;;;14.80;99.90;;;;;;6286853;28;20077;-85
2021/08/03 06:31:16;;;;;;;3.45;2.70;;;15.00;99.90;;;;;;6285994;28;20040;-87
2021/08/03 06:34:17;;;;;;;6.18;2.95;;;;;;;;;;6301322;28;20040;-85
2021/08/03 06:37:18;;;;;;;3.80;2.70;;;15.10;99.90;;;;;;6323747;28;20032;-85
2021/08/03 06:40:19;;;;;;;4.40;3.28;;;;;;;;;;6289453;28;20032;-89
2021/08/03 06:43:23;;;;;;;4.00;2.80;;;15.40;99.90;;;;;;6321227;28;20020;-86
2021/08/03 06:46:24;;;;;;;3.83;3.00;;;15.40;99.90;;;;;;6287760;28;20497;-88
2021/08/03 06:49:25;;;;;;;3.50;2.85;;;;;;;;;;6286740;28;20039;-82
2021/08/03 06:52:25;;;;;;;4.22;3.03;;;15.50;99.90;;;;;;6295763;28;20080;-86
2021/08/03 06:55:30;;;;;;;4.28;3.10;;;15.50;99.90;;;;;;6285112;28;20040;-86
2021/08/03 06:58:38;;;;;;;4.57;2.88;;;15.60;99.90;;;;;;6286411;28;20078;-88
2021/08/03 07:01:47;;;;;;;4.20;3.10;;;15.70;99.90;;;;;;6288155;28;20377;-86
2021/08/03 07:04:56;;;;;;;3.53;3.03;;;14.70;99.90;;;;;;6320175;28;20531;-86
2021/08/03 07:11:34;;;;;;;4.75;3.20;;;16.10;99.90;;;;;;6309477;28;20032;-90
2021/08/03 07:14:34;;;;;;;3.03;2.72;;;;;;;;;;6285551;28;20473;-87
2021/08/03 07:17:35;;;;;;;4.10;2.60;;;16.40;99.90;;;;;;6302592;28;20035;-88
2021/08/03 07:20:40;;;;;;;9.43;3.72;;;16.90;99.90;;;;;;6284826;28;20028;-87
2021/08/03 07:23:40;;;;;;;5.60;2.70;;;16.70;99.90;;;;;;6303042;28;20024;-86
2021/08/03 07:26:41;;;;;;;2.80;2.60;;;16.80;99.90;;;;;;6299795;28;20082;-86
2021/08/03 07:29:42;;;;;;;3.40;2.70;;;16.80;99.90;;;;;;6318399;28;20020;-86
2021/08/03 07:32:42;;;;;;;3.10;2.70;;;16.90;99.90;;;;;;6286271;28;20465;-88
2021/08/03 07:35:43;;;;;;;4.68;3.05;;;16.80;99.90;;;;;;6285104;28;20039;-87
2021/08/03 07:38:44;;;;;;;2.80;2.60;;;16.80;99.90;;;;;;6286213;28;20031;-87
2021/08/03 07:41:44;;;;;;;3.72;3.33;;;16.80;99.90;;;;;;6284658;28;20036;-88
2021/08/03 07:44:45;;;;;;;5.07;3.13;;;;;;;;;;6285687;28;20077;-87
2021/08/03 07:47:46;;;;;;;5.13;2.88;;;17.00;99.90;;;;;;6302064;28;20553;-87
2021/08/03 07:50:46;;;;;;;4.18;3.20;;;17.00;99.90;;;;;;6285248;28;20027;-87
2021/08/03 07:53:47;;;;;;;3.60;3.30;;;16.90;99.90;;;;;;6284806;28;20131;-89
2021/08/03 07:56:48;;;;;;;4.82;3.42;;;16.90;99.90;;;;;;6285173;28;20432;-89
2021/08/03 07:59:51;;;;;;;6.28;3.42;;;16.80;99.90;;;;;;6283958;28;20059;-84
2021/08/03 08:02:55;;;;;;;4.82;3.28;;;17.10;99.90;;;;;;6285857;28;20024;-90
2021/08/03 08:05:56;;;;;;;3.85;3.28;;;16.50;99.90;;;;;;6284044;28;20039;-89
2021/08/03 08:08:56;;;;;;;6.03;3.58;;;16.40;99.90;;;;;;6285250;28;20016;-89
2021/08/03 08:11:57;;;;;;;5.20;3.35;;;16.40;99.90;;;;;;6285149;28;20036;-88
2021/08/03 08:14:58;;;;;;;4.93;3.50;;;16.40;99.90;;;;;;6285325;28;20449;-91
2021/08/03 08:17:59;;;;;;;3.55;2.85;;;;;;;;;;6285029;28;20040;-87
2021/08/03 08:20:59;;;;;;;7.18;4.75;;;16.30;99.90;;;;;;6294144;28;20070;-91
2021/08/03 08:24:01;;;;;;;4.47;3.22;;;16.40;99.90;;;;;;6284677;28;20024;-85
2021/08/03 08:27:02;;;;;;;6.97;3.10;;;16.40;99.90;;;;;;6284766;28;20024;-90
2021/08/03 08:30:03;;;;;;;4.22;3.00;;;16.60;99.90;;;;;;6284818;28;20081;-88
2021/08/03 08:33:04;;;;;;;4.90;2.97;;;;;;;;;;6284454;28;20051;-92
2021/08/03 08:36:05;;;;;;;2.90;2.70;;;16.70;99.90;;;;;;6285824;28;20028;-89
2021/08/03 08:39:06;;;;;;;2.95;2.65;;;16.70;99.90;;;;;;6284930;28;20016;-90
2021/08/03 08:42:07;;;;;;;4.25;3.08;;;16.70;99.90;;;;;;6284311;28;20089;-90
2021/08/03 08:45:11;;;;;;;4.55;3.15;;;17.00;99.90;;;;;;6285198;28;20032;-88
2021/08/03 08:48:12;;;;;;;5.43;3.15;;;16.90;99.90;;;;;;6285660;28;20032;-92
2021/08/03 08:51:13;;;;;;;3.70;3.33;;;17.30;99.90;;;;;;6285132;28;20024;-89
2021/08/03 08:54:14;;;;;;;6.45;4.43;;;16.70;99.90;;;;;;6285098;28;20056;-88
2021/08/03 08:57:15;;;;;;;5.30;3.45;;;;;;;;;;6284468;28;20032;-90
2021/08/03 09:00:16;;;;;;;3.95;3.30;;;16.70;99.90;;;;;;6297714;28;20415;-92
2021/08/03 09:03:17;;;;;;;4.00;3.42;;;;;;;;;;6283254;28;20048;-85
2021/08/03 09:06:21;;;;;;;19.45;17.38;;;16.60;99.90;;;;;;6297220;28;20012;-87
2021/08/03 09:09:21;;;;;;;51.75;46.13;;;16.60;99.90;;;;;;6299682;28;20114;-85
2021/08/03 09:12:33;;;;;;;10.57;9.45;;;16.50;99.90;;;;;;6300421;28;20401;-85
2021/08/03 09:15:37;;;;;;;4.75;3.20;;;16.40;99.90;;;;;;6299566;28;20032;-86
2021/08/03 09:18:45;;;;;;;3.33;3.03;;;16.30;99.90;;;;;;6283972;28;20035;-87
2021/08/03 09:21:45;;;;;;;4.78;4.25;;;16.30;99.90;;;;;;6281742;28;20024;-85
2021/08/03 09:24:50;;;;;;;4.53;3.60;;;16.70;99.90;;;;;;6299623;28;20055;-85
2021/08/03 09:27:51;;;;;;;10.18;6.70;;;16.30;99.90;;;;;;6300151;28;20055;-88
2021/08/03 09:30:51;;;;;;;5.25;4.25;;;16.50;99.90;;;;;;6282871;28;20028;-84
2021/08/03 09:33:52;;;;;;;4.28;3.45;;;16.70;99.90;;;;;;6283022;28;20097;-86
2021/08/03 09:36:55;;;;;;;4.53;4.13;;;16.30;99.90;;;;;;6299219;28;20036;-86
2021/08/03 09:39:55;;;;;;;4.30;3.90;;;16.30;99.90;;;;;;6290680;28;20028;-86
2021/08/03 09:43:04;;;;;;;6.75;2.90;;;16.30;99.90;;;;;;6298910;28;20366;-82
2021/08/03 09:46:04;;;;;;;4.35;3.28;;;16.20;99.90;;;;;;6283776;28;20060;-87
2021/08/03 09:49:05;;;;;;;8.68;3.97;;;16.10;99.90;;;;;;6282136;28;20076;-85
2021/08/03 09:52:10;;;;;;;7.45;3.88;;;16.10;99.90;;;;;;6280888;28;20052;-88
2021/08/03 09:55:17;;;;;;;5.65;3.10;;;15.80;99.90;;;;;;6282853;28;20492;-89
2021/08/03 09:58:20;;;;;;;5.88;3.78;;;15.70;99.90;;;;;;6299150;28;20036;-91
2021/08/03 10:01:22;;;;;;;3.78;3.38;;;15.80;99.90;;;;;;6282295;28;20461;-90
2021/08/03 10:04:32;;;;;;;4.65;3.15;;;15.20;99.90;;;;;;6316450;28;20020;-91
2021/08/03 10:07:33;;;;;;;3.63;3.05;;;15.50;99.90;;;;;;6283126;28;20024;-88
2021/08/03 10:10:44;;;;;;;4.72;3.35;;;15.50;99.90;;;;;;6283832;28;20008;-90
2021/08/03 10:13:45;;;;;;;5.40;3.92;;;16.20;99.90;;;;;;6298615;28;20040;-91
2021/08/03 10:17:08;;;;;;;5.77;3.60;;;15.70;99.90;;;;;;6283003;28;20047;-91
2021/08/03 10:20:14;;;;;;;5.45;3.50;;;15.90;99.90;;;;;;6299057;28;20124;-92
2021/08/03 10:23:14;;;;;;;6.57;5.97;;;17.90;99.90;;;;;;6282770;28;20491;-87
2021/08/03 10:26:16;;;;;;;5.57;4.13;;;;;;;;;;6282257;28;20028;-88
2021/08/03 10:29:26;;;;;;;3.45;3.15;;;15.90;99.90;;;;;;6287880;28;20023;-91
2021/08/03 10:32:44;;;;;;;8.30;5.72;;;16.20;99.90;;;;;;6294364;28;20016;-90
2021/08/03 10:35:47;;;;;;;7.05;4.40;;;17.70;99.90;;;;;;6294600;28;20543;-90
2021/08/03 10:39:09;;;;;;;4.45;3.45;;;16.00;99.90;;;;;;6287186;28;20085;-88
2021/08/03 10:42:12;;;;;;;5.65;3.55;;;;;;;;;;6286848;28;20122;-90
2021/08/03 10:45:16;;;;;;;3.67;3.20;;;16.20;99.90;;;;;;6300848;28;20028;-89
2021/08/03 10:48:39;;;;;;;5.03;3.05;;;16.20;99.90;;;;;;6301341;28;20027;-86
2021/08/03 10:51:40;;;;;;;3.25;2.75;;;16.30;99.90;;;;;;6318913;28;20058;-86
2021/08/03 10:54:57;;;;;;;3.80;3.40;;;16.30;99.90;;;;;;6302912;28;20023;-85
2021/08/03 10:58:10;;;;;;;4.63;3.00;;;16.20;99.90;;;;;;6283666;28;20931;-81
2021/08/03 11:01:11;;;;;;;3.75;3.00;;;16.50;99.90;;;;;;6304911;28;20020;-83
2021/08/03 11:04:43;;;;;;;3.72;3.00;;;16.00;99.90;;;;;;6301822;28;20517;-83
2021/08/03 11:07:44;;;;;;;3.47;3.13;;;15.90;99.90;;;;;;6317969;28;20158;-82
2021/08/03 11:10:56;;;;;;;3.58;2.90;;;16.00;99.90;;;;;;6285288;28;20028;-83
2021/08/03 11:13:58;;;;;;;3.50;3.10;;;16.20;99.90;;;;;;6301804;28;20020;-80
2021/08/03 11:16:58;;;;;;;;;;;16.30;99.90;;;;;;6284333;28;20040;-84
2021/08/03 11:19:59;;;;;;;4.38;3.00;;;16.60;99.90;;;;;;6301185;28;19908;-83
2021/08/03 11:23:00;;;;;;;2.90;2.70;;;16.60;99.90;;;;;;6285031;28;20455;-84
2021/08/03 11:26:01;;;;;;;7.80;3.22;;;;;;;;;;6317878;28;20081;-82
2021/08/03 11:29:03;;;;;;;3.97;2.58;;;16.80;99.90;;;;;;6318392;28;20028;-82
2021/08/03 11:32:09;;;;;;;3.08;2.78;;;16.90;99.90;;;;;;6317873;28;20062;-83
2021/08/03 11:35:09;;;;;;;4.45;3.15;;;17.20;99.90;;;;;;6301696;28;20043;-83
2021/08/03 11:38:11;;;;;;;3.42;2.97;;;17.60;99.90;;;;;;6285015;28;20024;-84
2021/08/03 11:41:12;;;;;;;6.57;2.92;;;17.80;99.90;;;;;;6284193;28;20450;-85
2021/08/03 11:44:14;;;;;;;3.28;2.65;;;18.10;99.90;;;;;;6301446;28;20085;-83
2021/08/03 11:47:15;;;;;;;;;;;18.30;99.90;;;;;;6285428;28;20045;-85
2021/08/03 11:50:17;;;;;;;2.40;2.20;;;18.20;99.90;;;;;;6285253;28;19943;-82
2021/08/03 11:53:20;;;;;;;2.95;2.60;;;18.30;99.90;;;;;;6284788;28;20063;-84
2021/08/03 11:56:30;;;;;;;;;;;18.20;99.90;;;;;;6301021;28;20043;-82
2021/08/03 11:59:31;;;;;;;2.63;2.38;;;18.20;99.90;;;;;;6317820;28;20349;-81
2021/08/03 12:02:31;;;;;;;3.03;2.70;;;18.30;99.90;;;;;;6318071;28;20038;-83
2021/08/03 12:05:33;;;;;;;3.00;2.42;;;18.20;99.90;;;;;;6301234;28;20063;-85
2021/08/03 12:08:35;;;;;;;2.55;2.35;;;;;;;;;;6284204;28;20028;-87
2021/08/03 12:11:35;;;;;;;3.58;2.95;;;18.20;99.90;;;;;;6302140;28;20121;-87
2021/08/03 12:14:36;;;;;;;2.60;2.30;;;18.10;99.90;;;;;;6283526;28;20032;-87
2021/08/03 12:17:37;;;;;;;2.78;2.50;;;18.00;99.90;;;;;;6300109;28;20065;-86
2021/08/03 12:20:51;;;;;;;3.38;2.28;;;17.90;99.90;;;;;;6282897;28;20032;-83
2021/08/03 12:23:52;;;;;;;3.63;2.60;;;18.00;99.90;;;;;;6299379;28;20035;-86
2021/08/03 12:27:12;;;;;;;2.30;2.10;;;18.00;99.90;;;;;;6281263;28;20028;-87
2021/08/03 12:30:36;;;;;;;2.42;2.22;;;17.90;99.90;;;;;;6283996;28;20052;-86
2021/08/03 12:33:36;;;;;;;4.10;2.10;;;17.90;99.90;;;;;;6316669;28;20110;-86
2021/08/03 12:36:53;;;;;;;3.25;2.70;;;18.00;99.90;;;;;;6283611;28;20032;-85
2021/08/03 12:39:55;;;;;;;2.40;2.20;;;18.10;99.90;;;;;;6283617;28;20034;-85
2021/08/03 12:42:56;;;;;;;3.50;2.42;;;18.00;99.90;;;;;;6317619;28;20430;-87
2021/08/03 12:45:58;;;;;;;4.45;2.90;;;18.00;99.90;;;;;;6283650;28;20027;-86
2021/08/03 12:48:58;;;;;;;2.50;2.20;;;18.00;99.90;;;;;;6299734;28;20199;-85
2021/08/03 12:52:18;;;;;;;4.60;2.80;;;18.00;99.90;;;;;;6282695;28;20420;-87
2021/08/03 12:55:42;;;;;;;8.07;3.75;;;18.20;99.90;;;;;;6285533;28;20062;-89
2021/08/03 12:58:44;;;;;;;4.30;3.40;;;18.40;99.90;;;;;;6299945;28;20036;-88
2021/08/03 13:01:45;;;;;;;;;;;18.40;99.90;;;;;;6284755;28;20446;-88
2021/08/03 13:04:46;;;;;;;8.85;3.38;;;18.70;99.90;;;;;;6300174;28;19904;-88
2021/08/03 13:07:46;;;;;;;7.20;3.38;;;18.70;99.90;;;;;;6284051;28;20048;-88
2021/08/03 13:10:47;;;;;;;3.00;2.53;;;;;;;;;;6283908;28;20046;-88
2021/08/03 13:13:48;;;;;;;3.72;2.60;;;19.30;99.90;;;;;;6300123;28;20035;-88
2021/08/03 13:16:54;;;;;;;3.88;2.72;;;19.50;99.90;;;;;;6283269;28;20126;-89
2021/08/03 13:19:55;;;;;;;3.35;3.00;;;19.50;99.90;;;;;;6284343;28;20060;-88
2021/08/03 13:22:56;;;;;;;3.13;2.58;;;;;;;;;;6284171;28;20343;-88
2021/08/03 13:25:57;;;;;;;3.10;2.65;;;19.40;99.90;;;;;;6300217;28;20020;-87
2021/08/03 13:29:02;;;;;;;3.38;3.08;;;;;;;;;;6283903;28;20035;-88
2021/08/03 13:32:03;;;;;;;3.90;3.45;;;18.90;99.90;;;;;;6295183;28;20032;-91
2021/08/03 13:35:04;;;;;;;4.85;3.00;;;18.40;99.90;;;;;;6283312;28;20031;-88
2021/08/03 13:38:06;;;;;;;3.30;3.00;;;18.30;99.90;;;;;;6284050;28;20077;-90
2021/08/03 13:41:07;;;;;;;3.03;2.60;;;;;;;;;;6282368;28;20026;-90
2021/08/03 13:44:10;;;;;;;4.28;2.85;;;17.90;99.90;;;;;;6294896;28;20050;-90
2021/08/03 13:47:12;;;;;;;3.47;2.50;;;;;;;;;;6283882;28;20036;-91
2021/08/03 13:50:13;;;;;;;2.90;2.67;;;17.60;99.90;;;;;;6301196;28;20031;-89
2021/08/03 13:53:14;;;;;;;3.53;3.10;;;17.70;99.90;;;;;;6284381;28;20462;-90
2021/08/03 13:56:15;;;;;;;4.45;2.65;;;17.90;99.90;;;;;;6284455;28;20032;-90
2021/08/03 13:59:16;;;;;;;3.53;3.00;;;;;;;;;;6282623;28;20024;-91
2021/08/03 14:02:17;;;;;;;3.97;2.58;;;;;;;;;;6299905;28;20127;-90
2021/08/03 14:05:18;;;;;;;5.38;2.88;;;;;;;;;;6301039;28;20051;-87
2021/08/03 14:08:19;;;;;;;3.60;2.90;;;19.60;99.90;;;;;;6302971;28;20449;-87
2021/08/03 14:11:20;;;;;;;3.92;2.80;;;20.00;99.90;;;;;;6285309;28;20074;-86
2021/08/03 14:14:20;;;;;;;4.07;2.72;;;20.40;99.90;;;;;;6287141;28;20027;-84
2021/08/03 14:17:21;;;;;;;3.30;3.00;;;20.00;99.90;;;;;;6302135;28;20036;-86
2021/08/03 14:20:22;;;;;;;4.20;2.80;;;19.50;99.90;;;;;;6286519;28;20107;-86
2021/08/03 14:23:22;;;;;;;3.00;2.67;;;19.60;99.90;;;;;;6285490;28;20481;-85
2021/08/03 14:26:23;;;;;;;3.53;2.95;;;;;;;;;;6285956;28;20103;-85
2021/08/03 14:29:24;;;;;;;3.65;3.03;;;19.10;99.90;;;;;;6303524;28;20031;-89
2021/08/03 14:32:25;;;;;;;3.40;2.42;;;19.20;99.90;;;;;;6286880;28;20020;-85
2021/08/03 14:35:26;;;;;;;2.30;2.10;;;;;;;;;;6286687;28;20489;-87
2021/08/03 14:38:26;;;;;;;2.05;1.90;;;19.00;99.90;;;;;;6303060;28;20055;-86
2021/08/03 14:41:27;;;;;;;2.60;2.40;;;18.80;99.90;;;;;;6286164;28;20016;-84
2021/08/03 14:44:28;;;;;;;2.67;2.30;;;19.00;99.90;;;;;;6297479;28;20039;-86
2021/08/03 14:47:28;;;;;;;4.18;2.30;;;18.90;99.90;;;;;;6283853;28;20054;-87
2021/08/03 14:50:29;;;;;;;2.40;2.20;;;19.00;99.90;;;;;;6302561;28;20022;-84
2021/08/03 14:53:30;;;;;;;2.15;1.95;;;18.90;99.90;;;;;;6320237;28;20075;-89
2021/08/03 14:56:31;;;;;;;2.53;2.30;;;18.90;99.90;;;;;;6285904;28;20434;-88
2021/08/03 14:59:32;;;;;;;2.35;2.15;;;19.70;99.90;;;;;;6285286;28;20032;-86
2021/08/03 15:02:33;;;;;;;2.90;2.40;;;19.00;99.90;;;;;;6303112;28;20031;-82
2021/08/03 15:05:33;;;;;;;3.55;2.50;;;19.30;99.90;;;;;;6301753;28;20031;-81
2021/08/03 15:08:36;;;;;;;2.38;2.17;;;19.10;99.90;;;;;;6317828;28;20024;-82
2021/08/03 15:11:36;;;;;;;2.28;2.08;;;19.10;99.90;;;;;;6285265;28;20174;-85
2021/08/03 15:14:37;;;;;;;2.92;2.60;;;19.10;99.90;;;;;;6284974;28;20446;-86
2021/08/03 15:17:38;;;;;;;2.78;2.58;;;19.10;99.90;;;;;;6317712;28;20534;-82
2021/08/03 15:20:38;;;;;;;2.70;2.50;;;18.80;99.90;;;;;;6302145;28;20028;-82
2021/08/03 15:23:45;;;;;;;2.53;2.33;;;18.50;99.90;;;;;;6284754;28;20035;-88
2021/08/03 15:26:46;;;;;;;3.50;2.60;;;18.50;99.90;;;;;;6284763;28;20032;-84
2021/08/03 15:29:46;;;;;;;3.33;2.90;;;18.30;99.90;;;;;;6284828;28;20027;-83
2021/08/03 15:32:47;;;;;;;2.80;2.50;;;18.30;99.90;;;;;;6300950;28;20031;-84
2021/08/03 15:35:48;;;;;;;3.00;2.45;;;18.70;99.90;;;;;;6298423;28;20522;-84
2021/08/03 15:38:51;;;;;;;4.15;2.55;;;18.70;99.90;;;;;;6283719;28;21079;-84
2021/08/03 15:41:52;;;;;;;2.90;2.60;;;18.30;99.90;;;;;;6284058;28;20050;-84
2021/08/03 15:44:52;;;;;;;3.15;2.60;;;18.70;99.90;;;;;;6283938;28;20055;-85
2021/08/03 15:47:53;;;;;;;2.95;2.60;;;18.60;99.90;;;;;;6284145;28;20020;-83
2021/08/03 15:50:53;;;;;;;2.95;2.60;;;18.30;99.90;;;;;;6284420;28;20054;-85
2021/08/03 15:53:54;;;;;;;4.40;3.03;;;18.50;99.90;;;;;;6284088;28;20473;-82
2021/08/03 15:56:55;;;;;;;3.83;2.72;;;;;;;;;;6298930;28;20040;-84
2021/08/03 15:59:56;;;;;;;4.30;3.25;;;18.40;99.90;;;;;;6317321;28;20028;-83
2021/08/03 16:02:56;;;;;;;10.77;3.35;;;18.40;99.90;;;;;;6283457;28;20034;-82
2021/08/03 16:05:57;;;;;;;3.85;2.75;;;18.40;99.90;;;;;;6318173;28;20051;-83
2021/08/03 16:08:58;;;;;;;14.85;9.52;;;;;;;;;;6301332;28;20093;-82
2021/08/03 16:11:59;;;;;;;9.85;6.50;;;;;;;;;;6287862;28;20027;-79
2021/08/03 16:14:59;;;;;;;4.68;3.42;;;18.40;99.90;;;;;;6319259;28;20536;-81
2021/08/03 16:18:05;;;;;;;8.25;6.13;;;18.30;99.90;;;;;;6283617;28;20032;-81